Time;durP1;ratioP1;P1;durP2;ratioP2;P2;SDS_P1;SDS_P2;PMS_P1;PMS_P2;Temp;Humidity;BMP_temperature;BMP_pressure;BME280_temperature;BME280_humidity;BME280_pressure;Samples;Min_cycle;Max_cycle;Signal;HPM_P1;HPM_P2
2022/07/17 00:01:15;;;;;;;10.20;2.63;;;12.70;99.90;;;;;;4982103;28;20535;-56
2022/07/17 00:03:41;;;;;;;5.10;2.30;;;12.60;99.90;;;;;;4982418;28;20528;-55
2022/07/17 00:06:07;;;;;;;7.18;2.47;;;12.70;99.90;;;;;;4983492;28;20060;-55
2022/07/17 00:08:33;;;;;;;6.70;2.40;;;12.70;99.90;;;;;;4989955;28;20054;-55
2022/07/17 00:10:59;;;;;;;5.50;2.20;;;12.70;99.90;;;;;;4981903;28;20472;-55
2022/07/17 00:13:25;;;;;;;9.27;2.10;;;12.60;99.90;;;;;;4981989;28;20130;-55
2022/07/17 00:15:51;;;;;;;7.38;2.47;;;12.60;99.90;;;;;;4981409;28;20050;-55
2022/07/17 00:18:16;;;;;;;5.55;2.38;;;12.60;99.90;;;;;;4984280;28;20089;-55
2022/07/17 00:20:43;;;;;;;9.02;2.75;;;12.60;99.90;;;;;;4986155;28;20126;-56
2022/07/17 00:23:09;;;;;;;5.78;2.30;;;12.60;99.90;;;;;;4985493;28;20107;-55
2022/07/17 00:25:35;;;;;;;6.35;2.97;;;12.40;99.90;;;;;;4985128;28;20584;-54
2022/07/17 00:28:01;;;;;;;8.77;3.03;;;12.30;99.90;;;;;;4986024;28;20050;-56
2022/07/17 00:30:27;;;;;;;4.85;2.63;;;12.20;99.90;;;;;;4985625;28;20501;-54
2022/07/17 00:32:53;;;;;;;7.65;2.97;;;12.20;99.90;;;;;;4984697;28;20129;-57
2022/07/17 00:35:19;;;;;;;6.32;2.80;;;12.20;99.90;;;;;;4985057;28;20046;-56
2022/07/17 00:37:46;;;;;;;6.38;2.60;;;12.20;99.90;;;;;;4985010;28;20057;-55
2022/07/17 00:40:16;;;;;;;6.78;2.50;;;12.20;99.90;;;;;;4985923;28;20062;-55
2022/07/17 00:42:42;;;;;;;6.03;2.70;;;12.20;99.90;;;;;;4985594;28;20046;-55
2022/07/17 00:45:10;;;;;;;9.32;2.97;;;12.00;99.90;;;;;;4985304;28;20525;-57
2022/07/17 00:48:02;;;;;;;8.73;3.00;;;12.00;99.90;;;;;;4984359;28;20054;-56
2022/07/17 00:50:34;;;;;;;5.97;2.88;;;11.90;99.90;;;;;;4985257;28;20497;-55
2022/07/17 00:53:00;;;;;;;5.60;2.65;;;12.00;99.90;;;;;;4984827;28;20046;-59
2022/07/17 00:55:26;;;;;;;6.95;3.00;;;11.90;99.90;;;;;;4984753;28;20050;-55
2022/07/17 00:57:54;;;;;;;6.53;2.90;;;11.80;99.90;;;;;;4985274;28;20057;-56
2022/07/17 01:00:21;;;;;;;6.40;3.10;;;11.80;99.90;;;;;;4983551;28;20134;-54
2022/07/17 01:02:50;;;;;;;6.97;3.22;;;11.80;99.90;;;;;;4985257;28;20061;-57
2022/07/17 01:05:16;;;;;;;7.70;3.30;;;11.80;99.90;;;;;;4985035;28;20498;-58
2022/07/17 01:07:43;;;;;;;9.50;3.28;;;11.70;99.90;;;;;;4994762;28;20107;-55
2022/07/17 01:10:10;;;;;;;10.60;3.47;;;11.70;99.90;;;;;;4986108;28;20058;-55
2022/07/17 01:12:35;;;;;;;9.85;3.40;;;11.60;99.90;;;;;;4983324;28;20227;-55
2022/07/17 01:15:03;;;;;;;8.73;3.42;;;11.60;99.90;;;;;;5002200;28;20117;-56
2022/07/17 01:17:29;;;;;;;8.88;3.22;;;11.50;99.90;;;;;;5004158;28;20232;-55
2022/07/17 01:19:55;;;;;;;6.38;3.60;;;11.40;99.90;;;;;;5003236;28;20050;-56
2022/07/17 01:22:21;;;;;;;8.25;3.70;;;11.30;99.90;;;;;;5002929;28;20042;-56
2022/07/17 01:24:46;;;;;;;11.38;3.58;;;11.30;99.90;;;;;;5004662;28;20164;-58
2022/07/17 01:27:12;;;;;;;8.07;3.58;;;11.40;99.90;;;;;;5004682;28;20449;-55
2022/07/17 01:29:39;;;;;;;9.10;3.45;;;11.30;99.90;;;;;;5003599;28;20639;-56
2022/07/17 01:32:05;;;;;;;10.80;3.78;;;11.40;99.90;;;;;;5003633;28;20041;-56
2022/07/17 01:34:30;;;;;;;8.55;2.90;;;11.40;99.90;;;;;;5003961;28;20103;-54
2022/07/17 01:36:56;;;;;;;7.97;3.55;;;11.30;99.90;;;;;;5004283;28;20496;-56
2022/07/17 01:39:52;;;;;;;7.68;3.40;;;11.30;99.90;;;;;;5003174;28;20072;-57
2022/07/17 01:42:08;;;;;;;7.53;3.33;;;11.20;99.90;;;;;;5003673;28;20052;-56
2022/07/17 01:44:34;;;;;;;7.50;3.33;;;11.20;99.90;;;;;;5003742;28;20042;-56
2022/07/17 01:47:00;;;;;;;8.25;3.28;;;11.20;99.90;;;;;;5003102;28;20125;-55
2022/07/17 01:49:26;;;;;;;10.93;3.47;;;11.20;99.90;;;;;;5003640;28;20125;-56
2022/07/17 01:51:51;;;;;;;11.27;4.00;;;11.20;99.90;;;;;;5003765;28;20130;-55
2022/07/17 01:54:17;;;;;;;7.93;3.60;;;11.20;99.90;;;;;;5001799;28;20508;-55
2022/07/17 01:56:43;;;;;;;8.68;3.33;;;11.30;99.90;;;;;;5002535;28;20038;-55
2022/07/17 01:59:08;;;;;;;8.77;3.60;;;11.30;99.90;;;;;;5003633;28;20045;-54
2022/07/17 02:01:34;;;;;;;7.80;3.55;;;11.20;99.90;;;;;;5003580;28;20038;-56
2022/07/17 02:04:00;;;;;;;11.35;3.90;;;11.20;99.90;;;;;;5003385;28;20038;-56
2022/07/17 02:06:25;;;;;;;8.52;4.00;;;11.10;99.90;;;;;;4998431;28;20178;-55
2022/07/17 02:08:51;;;;;;;8.48;3.75;;;11.20;99.90;;;;;;4991659;28;20532;-56
2022/07/17 02:11:18;;;;;;;8.40;3.47;;;11.10;99.90;;;;;;4983358;28;20049;-55
2022/07/17 02:13:43;;;;;;;8.20;3.35;;;11.20;99.90;;;;;;4984402;28;20038;-55
2022/07/17 02:16:09;;;;;;;8.18;3.60;;;11.30;99.90;;;;;;4983446;28;20038;-56
2022/07/17 02:18:35;;;;;;;7.72;3.70;;;11.10;99.90;;;;;;4982449;28;20054;-55
2022/07/17 02:21:01;;;;;;;10.32;3.58;;;11.10;99.90;;;;;;4983452;28;20050;-55
2022/07/17 02:23:28;;;;;;;8.95;3.72;;;11.20;99.90;;;;;;4982300;28;20449;-55
2022/07/17 02:25:54;;;;;;;7.80;3.40;;;11.30;99.90;;;;;;4983478;28;20089;-55
2022/07/17 02:28:20;;;;;;;9.25;3.72;;;11.30;99.90;;;;;;4983484;28;20050;-54
2022/07/17 02:30:46;;;;;;;14.98;3.80;;;11.40;99.90;;;;;;4983524;28;20088;-56
2022/07/17 02:33:12;;;;;;;7.57;4.00;;;11.30;99.90;;;;;;4983441;28;20464;-55
2022/07/17 02:35:38;;;;;;;8.10;3.60;;;11.30;99.90;;;;;;4983073;28;20042;-54
2022/07/17 02:38:04;;;;;;;7.60;3.53;;;11.30;99.90;;;;;;4982665;28;20071;-55
2022/07/17 02:40:29;;;;;;;9.10;3.22;;;11.30;99.90;;;;;;4964826;28;20046;-54
2022/07/17 02:42:55;;;;;;;7.75;3.50;;;11.30;99.90;;;;;;4982814;28;20050;-54
2022/07/17 02:45:24;;;;;;;6.65;3.63;;;11.30;99.90;;;;;;4983211;28;20042;-55
2022/07/17 02:47:50;;;;;;;8.45;3.60;;;11.30;99.90;;;;;;4983285;28;20650;-55
2022/07/17 02:50:17;;;;;;;6.72;3.40;;;11.20;99.90;;;;;;4982561;28;20039;-56
2022/07/17 02:52:43;;;;;;;6.80;3.42;;;11.10;99.90;;;;;;4982950;28;20470;-56
2022/07/17 02:55:10;;;;;;;9.18;3.55;;;11.10;99.90;;;;;;4982988;28;20096;-54
2022/07/17 02:57:37;;;;;;;6.10;3.55;;;11.10;99.90;;;;;;4982846;28;20055;-55
2022/07/17 03:00:09;;;;;;;8.40;3.90;;;11.10;99.90;;;;;;4982502;28;20092;-55
2022/07/17 03:02:35;;;;;;;6.72;3.60;;;11.10;99.90;;;;;;4982646;28;20043;-55
2022/07/17 03:05:00;;;;;;;9.10;3.95;;;11.10;99.90;;;;;;4982666;28;20091;-55
2022/07/17 03:07:26;;;;;;;7.65;4.07;;;11.10;99.90;;;;;;4989629;28;20135;-55
2022/07/17 03:09:52;;;;;;;7.28;3.70;;;11.00;99.90;;;;;;4984950;28;20085;-54
2022/07/17 03:12:18;;;;;;;9.10;4.00;;;10.90;99.90;;;;;;4982620;28;20129;-55
2022/07/17 03:14:43;;;;;;;7.63;4.05;;;11.00;99.90;;;;;;4983051;28;20340;-54
2022/07/17 03:17:09;;;;;;;8.40;3.72;;;11.00;99.90;;;;;;4982284;28;20692;-55
2022/07/17 03:19:35;;;;;;;8.35;3.72;;;11.00;99.90;;;;;;4982434;28;20070;-54
2022/07/17 03:22:00;;;;;;;7.65;4.07;;;10.90;99.90;;;;;;4981476;28;20034;-54
2022/07/17 03:24:26;;;;;;;7.00;3.50;;;10.90;99.90;;;;;;4982430;28;20042;-55
2022/07/17 03:26:52;;;;;;;13.55;4.45;;;10.90;99.90;;;;;;4980527;28;20129;-55
2022/07/17 03:29:17;;;;;;;7.60;3.95;;;10.80;99.90;;;;;;4997416;28;20042;-55
2022/07/17 03:31:47;;;;;;;9.77;4.47;;;10.80;99.90;;;;;;4982292;28;20046;-55
2022/07/17 03:34:13;;;;;;;9.27;4.05;;;10.80;99.90;;;;;;4982535;28;20453;-54
2022/07/17 03:36:39;;;;;;;9.50;4.20;;;10.70;99.90;;;;;;4980720;28;20050;-55
2022/07/17 03:39:05;;;;;;;7.32;4.00;;;10.60;99.90;;;;;;4980379;28;20679;-55
2022/07/17 03:41:31;;;;;;;9.65;4.47;;;10.70;99.90;;;;;;4981713;28;20066;-54
2022/07/17 03:43:57;;;;;;;9.73;3.90;;;10.80;99.90;;;;;;4981928;28;20493;-55
2022/07/17 03:46:22;;;;;;;8.60;4.10;;;10.80;99.90;;;;;;4982000;28;20480;-55
2022/07/17 03:48:48;;;;;;;11.35;4.45;;;10.80;99.90;;;;;;4982534;28;20085;-55
2022/07/17 03:51:14;;;;;;;8.98;3.60;;;10.80;99.90;;;;;;4981985;28;20034;-55
2022/07/17 03:53:40;;;;;;;8.65;3.63;;;10.90;99.90;;;;;;4980328;28;20050;-55
2022/07/17 03:56:06;;;;;;;6.72;3.47;;;10.90;99.90;;;;;;4982221;28;20485;-55
2022/07/17 03:58:32;;;;;;;8.63;4.07;;;10.90;99.90;;;;;;4981692;28;20137;-54
2022/07/17 04:00:58;;;;;;;9.55;4.30;;;10.80;99.90;;;;;;4982347;28;20086;-52
2022/07/17 04:03:24;;;;;;;5.97;3.63;;;10.90;99.90;;;;;;4981127;28;20046;-55
2022/07/17 04:05:49;;;;;;;7.10;3.60;;;10.90;99.90;;;;;;4982226;28;20038;-55
2022/07/17 04:08:15;;;;;;;7.35;3.58;;;11.00;99.90;;;;;;4992186;28;20058;-56
2022/07/17 04:10:41;;;;;;;8.50;3.50;;;11.00;99.90;;;;;;4982000;28;20604;-56
2022/07/17 04:13:07;;;;;;;9.20;4.20;;;11.10;99.90;;;;;;4980586;28;20417;-54
2022/07/17 04:18:17;;;;;;;7.18;3.65;;;11.20;99.90;;;;;;4981165;28;20050;-55
2022/07/17 04:20:43;;;;;;;6.57;3.70;;;11.30;99.90;;;;;;4982642;28;20081;-55
2022/07/17 04:23:09;;;;;;;6.25;3.40;;;11.30;99.90;;;;;;4980911;28;20452;-55
2022/07/17 04:25:35;;;;;;;10.48;3.55;;;11.50;99.90;;;;;;4981748;28;20041;-55
2022/07/17 04:28:00;;;;;;;7.15;3.30;;;11.50;99.90;;;;;;4981181;28;20505;-55
2022/07/17 04:30:26;;;;;;;7.75;3.17;;;11.50;99.90;;;;;;4981739;28;20039;-54
2022/07/17 04:32:52;;;;;;;8.15;3.45;;;11.60;99.90;;;;;;4982095;28;20490;-54
2022/07/17 04:35:17;;;;;;;7.45;3.58;;;11.70;99.90;;;;;;4981401;28;20493;-56
2022/07/17 04:37:43;;;;;;;10.48;3.63;;;11.70;99.90;;;;;;4981078;28;20059;-54
2022/07/17 04:40:10;;;;;;;7.63;3.20;;;11.80;99.90;;;;;;4981601;28;20042;-54
2022/07/17 04:42:36;;;;;;;8.30;3.67;;;11.80;99.90;;;;;;4981669;28;20065;-53
2022/07/17 04:45:01;;;;;;;7.32;3.50;;;11.80;99.90;;;;;;4980920;28;20042;-54
2022/07/17 04:47:27;;;;;;;9.40;3.67;;;11.70;99.90;;;;;;4980034;28;20050;-54
2022/07/17 04:49:53;;;;;;;7.50;3.50;;;11.70;99.90;;;;;;4981966;28;20038;-54
2022/07/17 04:52:18;;;;;;;6.85;3.75;;;11.70;99.90;;;;;;4980796;28;20053;-55
2022/07/17 04:54:44;;;;;;;6.28;3.15;;;11.70;99.90;;;;;;4980043;28;20046;-54
2022/07/17 04:57:09;;;;;;;5.82;3.40;;;11.60;99.90;;;;;;4981767;28;20057;-53
2022/07/17 04:59:37;;;;;;;9.18;4.30;;;11.60;99.90;;;;;;4981481;28;20050;-55
2022/07/17 05:02:03;;;;;;;7.13;3.60;;;11.70;99.90;;;;;;4980189;28;20327;-55
2022/07/17 05:04:29;;;;;;;6.28;3.30;;;11.70;99.90;;;;;;4983586;28;20034;-54
2022/07/17 05:06:54;;;;;;;7.28;4.00;;;11.70;99.90;;;;;;4988875;28;20531;-55
2022/07/17 05:09:20;;;;;;;7.45;3.45;;;11.70;99.90;;;;;;4991266;28;20519;-54
2022/07/17 05:11:46;;;;;;;9.32;4.13;;;11.70;99.90;;;;;;4985111;28;20046;-55
2022/07/17 05:14:12;;;;;;;8.40;4.53;;;11.80;99.90;;;;;;5000156;28;20065;-54
2022/07/17 05:16:37;;;;;;;6.15;4.13;;;11.80;99.90;;;;;;4984487;28;20065;-55
2022/07/17 05:19:03;;;;;;;7.68;4.00;;;11.80;99.90;;;;;;4985083;28;20090;-55
2022/07/17 05:21:29;;;;;;;10.80;4.40;;;11.80;99.90;;;;;;4983809;28;20042;-54
2022/07/17 05:23:54;;;;;;;6.55;4.10;;;11.80;99.90;;;;;;4984583;28;20124;-54
2022/07/17 05:26:20;;;;;;;7.72;3.95;;;11.80;99.90;;;;;;4984452;28;20554;-55
2022/07/17 05:28:46;;;;;;;6.65;3.65;;;11.90;99.90;;;;;;4984570;28;20492;-55
2022/07/17 05:31:12;;;;;;;9.95;3.70;;;11.90;99.90;;;;;;4984477;28;20049;-55
2022/07/17 05:33:37;;;;;;;6.88;3.33;;;11.90;99.90;;;;;;4984601;28;20054;-53
2022/07/17 05:36:03;;;;;;;7.20;3.78;;;11.90;99.90;;;;;;4984338;28;20532;-55
2022/07/17 05:38:29;;;;;;;7.80;4.00;;;12.00;99.90;;;;;;4983869;28;20042;-55
2022/07/17 05:40:55;;;;;;;6.70;3.65;;;12.00;99.90;;;;;;4984009;28;20125;-55
2022/07/17 05:43:20;;;;;;;6.68;3.92;;;12.10;99.90;;;;;;4984344;28;20053;-55
2022/07/17 05:45:46;;;;;;;8.95;3.63;;;12.20;99.90;;;;;;4984437;28;20868;-55
2022/07/17 05:48:12;;;;;;;7.80;3.17;;;12.30;99.90;;;;;;4985013;28;20409;-54
2022/07/17 05:50:37;;;;;;;8.90;3.30;;;12.40;99.90;;;;;;4983312;28;20790;-54
2022/07/17 05:53:03;;;;;;;6.57;2.80;;;12.50;99.90;;;;;;4983742;28;20172;-54
2022/07/17 05:55:29;;;;;;;8.25;2.90;;;12.70;99.90;;;;;;4983949;28;20489;-55
2022/07/17 05:57:54;;;;;;;6.55;2.72;;;12.80;99.90;;;;;;4984286;28;20077;-55
2022/07/17 06:00:20;;;;;;;7.60;2.88;;;13.00;99.90;;;;;;4983411;28;20503;-56
2022/07/17 06:02:46;;;;;;;3.67;2.00;;;13.40;99.90;;;;;;4983793;28;20556;-55
2022/07/17 06:05:11;;;;;;;5.57;2.45;;;14.20;99.90;;;;;;4984756;28;20042;-55
2022/07/17 06:07:37;;;;;;;10.07;2.30;;;14.70;99.90;;;;;;4992189;28;20066;-55
2022/07/17 06:10:04;;;;;;;7.90;2.60;;;15.30;99.90;;;;;;4984777;28;20077;-55
2022/07/17 06:12:30;;;;;;;5.95;2.20;;;15.80;99.90;;;;;;4983743;28;20379;-54
2022/07/17 06:14:55;;;;;;;5.97;1.80;;;16.30;99.90;;;;;;4982782;28;20070;-55
2022/07/17 06:17:21;;;;;;;6.15;2.30;;;15.90;99.90;;;;;;4983161;28;20053;-54
2022/07/17 06:19:47;;;;;;;6.82;2.00;;;15.70;99.90;;;;;;4983916;28;20464;-54
2022/07/17 06:22:12;;;;;;;8.55;1.92;;;15.70;99.90;;;;;;4983357;28;20046;-55
2022/07/17 06:24:38;;;;;;;5.03;1.98;;;15.80;99.90;;;;;;4983278;28;20045;-53
2022/07/17 06:27:03;;;;;;;6.90;2.10;;;16.30;99.90;;;;;;4981944;28;20054;-54
2022/07/17 06:29:29;;;;;;;7.50;1.90;;;16.30;99.90;;;;;;4981660;28;20089;-53
2022/07/17 06:31:55;;;;;;;6.82;2.00;;;15.70;99.90;;;;;;4966213;28;20604;-55
2022/07/17 06:34:20;;;;;;;8.02;2.40;;;15.70;99.90;;;;;;4983485;28;20046;-53
2022/07/17 06:36:46;;;;;;;6.65;2.28;;;15.40;99.90;;;;;;4982217;28;20455;-55
2022/07/17 06:39:12;;;;;;;6.13;2.15;;;15.30;99.90;;;;;;4983586;28;20125;-54
2022/07/17 06:41:37;;;;;;;8.18;2.05;;;15.20;99.90;;;;;;4981724;28;20561;-54
2022/07/17 06:44:03;;;;;;;6.13;2.17;;;15.10;99.90;;;;;;4982257;28;20050;-55
2022/07/17 06:46:29;;;;;;;5.70;2.10;;;15.30;99.90;;;;;;4982395;28;20146;-54
2022/07/17 06:48:54;;;;;;;7.85;2.17;;;15.40;99.90;;;;;;4983489;28;20049;-54
2022/07/17 06:51:20;;;;;;;5.15;1.45;;;16.00;99.90;;;;;;4980561;28;20404;-53
2022/07/17 06:53:46;;;;;;;7.75;1.98;;;16.40;99.90;;;;;;4981547;28;20745;-57
2022/07/17 06:56:11;;;;;;;6.85;1.55;;;16.50;99.90;;;;;;4982307;28;20720;-54
2022/07/17 06:58:37;;;;;;;6.80;1.73;;;16.50;99.90;;;;;;4983019;28;20046;-54
2022/07/17 07:01:02;;;;;;;6.93;1.42;;;15.90;99.90;;;;;;4982826;28;20046;-54
2022/07/17 07:03:28;;;;;;;7.45;1.50;;;15.80;99.90;;;;;;4981784;28;20046;-54
2022/07/17 07:05:55;;;;;;;4.88;1.40;;;15.60;99.90;;;;;;4983254;28;20046;-55
2022/07/17 07:08:20;;;;;;;6.80;1.83;;;15.50;99.90;;;;;;4991818;28;20054;-57
2022/07/17 07:10:46;;;;;;;6.65;1.50;;;15.50;99.90;;;;;;4982920;28;20558;-57
2022/07/17 07:13:14;;;;;;;6.97;1.65;;;15.40;99.90;;;;;;4982575;28;20701;-53
2022/07/17 07:15:40;;;;;;;7.78;1.70;;;15.50;99.90;;;;;;4982778;28;20042;-55
2022/07/17 07:18:06;;;;;;;6.90;1.70;;;15.40;99.90;;;;;;4982554;28;20121;-54
2022/07/17 07:20:31;;;;;;;5.10;1.60;;;15.40;99.90;;;;;;4982622;28;20066;-55
2022/07/17 07:22:57;;;;;;;7.13;1.70;;;15.50;99.90;;;;;;4981224;28;20061;-56
2022/07/17 07:25:23;;;;;;;8.55;2.08;;;15.40;99.90;;;;;;4982245;28;20038;-54
2022/07/17 07:27:49;;;;;;;7.18;1.80;;;15.60;99.90;;;;;;4982366;28;20172;-56
2022/07/17 07:30:14;;;;;;;9.07;2.00;;;15.70;99.90;;;;;;4982204;28;20089;-55
2022/07/17 07:32:40;;;;;;;7.50;1.52;;;15.80;99.90;;;;;;4982346;28;20090;-56
2022/07/17 07:35:07;;;;;;;8.35;1.63;;;15.90;99.90;;;;;;4982100;28;20042;-56
2022/07/17 07:37:34;;;;;;;5.60;1.52;;;16.00;99.90;;;;;;4981457;28;20441;-55
2022/07/17 07:39:59;;;;;;;4.43;2.00;;;15.90;99.90;;;;;;4963979;28;20051;-56
2022/07/17 07:42:26;;;;;;;8.60;1.67;;;16.00;99.90;;;;;;4982316;28;20046;-56
2022/07/17 07:44:51;;;;;;;6.18;1.73;;;16.10;99.90;;;;;;4980728;28;20054;-55
2022/07/17 07:47:18;;;;;;;7.32;1.60;;;16.30;99.90;;;;;;4982273;28;20397;-55
2022/07/17 07:49:43;;;;;;;3.85;1.30;;;16.30;99.90;;;;;;4981966;28;20050;-56
2022/07/17 07:52:09;;;;;;;7.00;1.65;;;16.40;99.90;;;;;;4981535;28;20510;-54
2022/07/17 07:54:35;;;;;;;4.82;1.38;;;16.40;99.90;;;;;;4981821;28;20081;-54
2022/07/17 07:57:01;;;;;;;8.10;1.73;;;16.60;99.90;;;;;;4981594;28;20208;-54
2022/07/17 07:59:28;;;;;;;5.10;1.75;;;16.70;99.90;;;;;;4981860;28;20049;-54
2022/07/17 08:01:53;;;;;;;4.53;1.35;;;16.80;99.90;;;;;;4981935;28;20126;-54
2022/07/17 08:04:19;;;;;;;10.38;1.48;;;16.70;99.90;;;;;;4981838;28;20129;-55
2022/07/17 08:06:44;;;;;;;5.57;1.50;;;16.60;99.90;;;;;;4983562;28;20119;-53
2022/07/17 08:09:10;;;;;;;6.75;1.73;;;16.70;99.90;;;;;;4989917;28;20058;-54
2022/07/17 08:11:36;;;;;;;6.35;1.40;;;16.90;99.90;;;;;;4981475;28;20050;-54
2022/07/17 08:14:01;;;;;;;6.00;1.60;;;16.80;99.90;;;;;;4982116;28;20543;-56
2022/07/17 08:16:27;;;;;;;5.78;1.77;;;17.10;99.90;;;;;;4981229;28;20716;-54
2022/07/17 08:18:53;;;;;;;5.20;1.60;;;17.20;99.90;;;;;;4981809;28;20062;-54
2022/07/17 08:21:18;;;;;;;8.00;1.58;;;17.30;99.90;;;;;;4979789;28;20492;-53
2022/07/17 08:23:44;;;;;;;3.58;1.30;;;17.20;99.90;;;;;;4980606;28;20053;-54
2022/07/17 08:26:10;;;;;;;7.43;1.80;;;17.50;99.90;;;;;;4981371;28;20042;-54
2022/07/17 08:28:35;;;;;;;6.65;1.50;;;17.80;99.90;;;;;;4981771;28;20058;-56
2022/07/17 08:31:01;;;;;;;6.38;1.48;;;18.20;99.90;;;;;;4980270;28;20783;-54
2022/07/17 08:33:27;;;;;;;5.18;1.50;;;18.10;99.90;;;;;;4981855;28;20101;-54
2022/07/17 08:35:52;;;;;;;5.47;1.30;;;18.50;99.90;;;;;;4980959;28;20683;-55
2022/07/17 08:38:18;;;;;;;5.90;1.80;;;18.60;99.90;;;;;;4981552;28;20057;-55
2022/07/17 08:40:47;;;;;;;7.22;1.85;;;18.60;99.90;;;;;;4985727;28;20505;-54
2022/07/17 08:43:13;;;;;;;6.18;1.88;;;18.80;99.90;;;;;;4984015;28;20109;-54
2022/07/17 08:45:39;;;;;;;7.65;1.23;;;18.30;99.90;;;;;;4985416;28;20617;-55
2022/07/17 08:48:11;;;;;;;6.05;1.23;;;18.30;99.90;;;;;;4985177;28;20129;-55
2022/07/17 08:50:37;;;;;;;3.63;1.20;;;18.70;99.90;;;;;;4985139;28;20042;-54
2022/07/17 08:53:03;;;;;;;6.30;1.38;;;18.70;99.90;;;;;;4984326;28;20066;-54
2022/07/17 08:55:29;;;;;;;7.35;1.50;;;19.00;99.90;;;;;;4985129;28;20042;-55
2022/07/17 08:57:55;;;;;;;5.18;1.38;;;19.40;99.90;;;;;;4985431;28;20050;-54
2022/07/17 09:00:25;;;;;;;5.22;1.27;;;19.50;99.90;;;;;;4985178;28;20456;-54
2022/07/17 09:03:06;;;;;;;9.93;1.60;;;19.30;99.90;;;;;;4985146;28;20043;-55
2022/07/17 09:05:40;;;;;;;6.72;1.67;;;19.50;99.90;;;;;;4984683;28;20042;-54
2022/07/17 09:08:08;;;;;;;5.20;1.17;;;19.30;99.90;;;;;;4994075;28;20081;-55
2022/07/17 09:10:42;;;;;;;5.88;1.40;;;19.60;99.90;;;;;;4984863;28;20061;-54
2022/07/17 09:13:20;;;;;;;6.93;1.45;;;19.70;99.90;;;;;;4985337;28;20054;-55
2022/07/17 09:15:47;;;;;;;5.05;1.55;;;20.00;99.90;;;;;;4985027;28;20053;-55
2022/07/17 09:18:13;;;;;;;5.03;1.20;;;20.10;99.90;;;;;;4985201;28;20049;-54
2022/07/17 09:20:48;;;;;;;6.82;1.33;;;20.30;99.90;;;;;;4984541;28;20081;-52
2022/07/17 09:23:14;;;;;;;6.15;1.30;;;20.80;99.90;;;;;;5009217;28;20038;-53
2022/07/17 09:25:41;;;;;;;5.82;1.13;;;21.20;99.90;;;;;;5005330;28;20065;-54
2022/07/17 09:28:09;;;;;;;3.38;1.23;;;21.30;99.90;;;;;;5008350;28;20045;-55
2022/07/17 09:30:39;;;;;;;5.88;1.35;;;20.80;99.90;;;;;;5003449;28;20094;-56
2022/07/17 09:33:08;;;;;;;5.25;1.05;;;20.70;99.90;;;;;;5004022;28;20073;-57
2022/07/17 09:35:34;;;;;;;5.35;1.30;;;21.30;99.90;;;;;;5004040;28;20183;-55
2022/07/17 09:37:59;;;;;;;7.53;1.40;;;21.20;99.90;;;;;;5002776;28;20112;-55
2022/07/17 09:43:09;;;;;;;6.60;1.30;;;21.60;99.90;;;;;;5003626;28;20058;-56
2022/07/17 09:45:36;;;;;;;4.60;1.38;;;21.90;99.90;;;;;;5000854;28;20053;-55
2022/07/17 09:48:03;;;;;;;6.78;1.48;;;22.40;99.90;;;;;;5003467;28;20070;-54
2022/07/17 09:50:29;;;;;;;5.53;1.80;;;22.60;99.90;;;;;;5003856;28;20042;-54
2022/07/17 09:52:56;;;;;;;5.35;1.30;;;22.50;99.90;;;;;;5003306;28;20049;-55
2022/07/17 09:55:30;;;;;;;6.05;1.33;;;23.10;99.90;;;;;;5002904;28;20044;-55
2022/07/17 09:57:58;;;;;;;3.88;1.55;;;23.00;99.90;;;;;;5003755;28;20120;-53
2022/07/17 10:00:24;;;;;;;4.15;1.15;;;23.20;99.90;;;;;;5003578;28;20041;-55
2022/07/17 10:02:50;;;;;;;5.53;1.30;;;23.40;99.90;;;;;;5002918;28;20761;-55
2022/07/17 10:05:16;;;;;;;4.22;1.40;;;23.30;99.90;;;;;;5003719;28;20133;-57
2022/07/17 10:07:46;;;;;;;5.40;1.38;;;23.60;99.90;;;;;;4996432;28;20068;-55
2022/07/17 10:10:14;;;;;;;6.03;1.50;;;24.00;99.90;;;;;;4983594;28;20421;-55
2022/07/17 10:12:44;;;;;;;6.63;1.50;;;23.30;99.90;;;;;;4983691;28;20117;-56
2022/07/17 10:15:11;;;;;;;6.85;1.20;;;22.90;99.90;;;;;;4984081;28;20128;-55
2022/07/17 10:17:37;;;;;;;5.32;1.23;;;23.40;99.90;;;;;;4982699;28;20070;-56
2022/07/17 10:20:04;;;;;;;4.63;1.20;;;23.70;99.90;;;;;;4998042;28;20046;-56
2022/07/17 10:22:44;;;;;;;4.40;1.40;;;23.80;99.90;;;;;;4983134;28;20042;-56
2022/07/17 10:25:14;;;;;;;4.95;1.45;;;24.20;99.90;;;;;;4983538;28;20090;-55
2022/07/17 10:27:47;;;;;;;2.97;1.20;;;24.50;99.90;;;;;;4983543;28;20046;-56
2022/07/17 10:30:18;;;;;;;5.25;1.35;;;24.40;99.90;;;;;;4984168;28;20049;-56
2022/07/17 10:32:51;;;;;;;5.25;1.15;;;24.10;99.90;;;;;;4983692;28;20042;-55
2022/07/17 10:35:17;;;;;;;5.97;1.40;;;24.70;99.90;;;;;;4983417;28;20097;-56
2022/07/17 10:37:43;;;;;;;6.43;1.48;;;24.90;99.90;;;;;;4983038;28;20054;-56
2022/07/17 10:40:22;;;;;;;7.72;1.52;;;24.90;99.90;;;;;;4983858;28;20045;-56
2022/07/17 10:42:51;;;;;;;6.00;1.55;;;24.30;99.90;;;;;;4983641;28;20051;-56
2022/07/17 10:45:27;;;;;;;6.57;1.42;;;24.50;99.90;;;;;;4983301;28;20436;-57
2022/07/17 10:48:10;;;;;;;4.50;1.38;;;24.50;99.90;;;;;;4982900;28;20127;-56
2022/07/17 10:50:36;;;;;;;6.20;1.30;;;25.00;99.90;;;;;;4982397;28;20864;-55
2022/07/17 10:53:11;;;;;;;4.57;1.60;;;25.00;99.90;;;;;;4983200;28;20050;-55
2022/07/17 10:55:40;;;;;;;6.45;1.60;;;25.10;99.90;;;;;;4983095;28;20046;-56
2022/07/17 10:58:21;;;;;;;4.43;1.20;;;25.30;99.90;;;;;;4983361;28;20413;-57
2022/07/17 11:01:00;;;;;;;4.00;1.50;;;25.50;99.90;;;;;;4982253;28;20046;-57
2022/07/17 11:03:27;;;;;;;4.65;1.70;;;25.30;99.90;;;;;;4981459;28;20054;-56
2022/07/17 11:05:52;;;;;;;4.55;1.52;;;25.60;99.90;;;;;;4982379;28;20138;-55
2022/07/17 11:08:18;;;;;;;4.97;1.65;;;25.70;99.90;;;;;;4992647;28;20228;-56
2022/07/17 11:10:46;;;;;;;2.92;1.23;;;25.50;99.90;;;;;;4983237;28;20058;-56
2022/07/17 11:13:15;;;;;;;3.67;1.40;;;25.60;99.90;;;;;;4983495;28;20049;-56
2022/07/17 11:15:48;;;;;;;3.45;1.20;;;25.20;99.90;;;;;;4980959;28;20481;-55
2022/07/17 11:18:19;;;;;;;5.45;1.30;;;24.90;99.90;;;;;;4983023;28;20170;-56
2022/07/17 11:20:49;;;;;;;9.48;1.67;;;24.10;99.90;;;;;;4982352;28;20042;-57
2022/07/17 11:23:15;;;;;;;3.47;1.40;;;24.60;99.90;;;;;;4982464;28;20047;-56
2022/07/17 11:25:54;;;;;;;3.90;1.13;;;24.90;99.90;;;;;;4982950;28;20130;-56
2022/07/17 11:28:40;;;;;;;7.15;1.45;;;24.70;99.90;;;;;;4982420;28;20042;-56
2022/07/17 11:31:27;;;;;;;5.03;1.58;;;24.90;99.90;;;;;;4982479;28;20248;-56
2022/07/17 11:33:57;;;;;;;6.95;1.58;;;25.40;99.90;;;;;;4981048;28;20170;-57
2022/07/17 11:36:35;;;;;;;4.30;1.40;;;25.70;99.90;;;;;;4981427;28;20080;-57
2022/07/17 11:39:05;;;;;;;3.53;1.30;;;25.60;99.90;;;;;;4982610;28;20488;-57
2022/07/17 11:41:33;;;;;;;5.53;1.65;;;25.60;99.90;;;;;;4981538;28;20050;-57
2022/07/17 11:43:58;;;;;;;4.80;1.50;;;25.40;99.90;;;;;;4980886;28;20054;-56
2022/07/17 11:46:26;;;;;;;4.30;1.45;;;24.70;99.90;;;;;;4981721;28;20053;-56
2022/07/17 11:48:52;;;;;;;4.53;1.50;;;24.50;99.90;;;;;;4982234;28;20082;-57
2022/07/17 11:51:18;;;;;;;3.75;1.35;;;24.70;99.90;;;;;;4981074;28;20497;-56
2022/07/17 11:53:44;;;;;;;4.97;1.63;;;25.00;99.90;;;;;;4982766;28;20116;-56
2022/07/17 11:56:20;;;;;;;6.00;1.58;;;24.90;99.90;;;;;;4982075;28;20042;-56
2022/07/17 11:58:47;;;;;;;2.90;1.33;;;24.40;99.90;;;;;;4981582;28;20124;-57
2022/07/17 12:01:14;;;;;;;4.13;1.50;;;25.00;99.90;;;;;;4982406;28;20401;-57
2022/07/17 12:03:40;;;;;;;4.05;1.70;;;25.40;99.90;;;;;;4981941;28;20453;-58
2022/07/17 12:06:06;;;;;;;5.43;1.90;;;24.80;99.90;;;;;;4982850;28;20042;-57
2022/07/17 12:08:33;;;;;;;5.47;1.67;;;25.00;99.90;;;;;;4990565;28;20050;-57
2022/07/17 12:11:04;;;;;;;5.00;1.88;;;24.90;99.90;;;;;;4981735;28;20053;-57
2022/07/17 12:13:42;;;;;;;4.45;1.33;;;24.90;99.90;;;;;;4982642;28;20053;-55
2022/07/17 12:16:29;;;;;;;4.63;1.50;;;25.10;99.90;;;;;;4985800;28;20045;-57
2022/07/17 12:19:18;;;;;;;3.90;1.60;;;24.30;99.90;;;;;;4985794;28;20042;-56
2022/07/17 12:22:00;;;;;;;4.22;1.48;;;24.10;99.90;;;;;;4985718;28;20400;-57
2022/07/17 12:24:44;;;;;;;3.42;1.35;;;23.60;99.90;;;;;;4985464;28;20105;-57
2022/07/17 12:27:11;;;;;;;;;;;23.50;99.90;;;;;;4986359;28;20042;-57
2022/07/17 12:29:37;;;;;;;4.72;1.70;;;22.90;99.90;;;;;;4985548;28;19926;-57
2022/07/17 12:32:14;;;;;;;5.35;1.60;;;23.20;99.90;;;;;;4984994;28;20034;-56
2022/07/17 12:34:45;;;;;;;3.75;1.60;;;23.70;99.90;;;;;;4985771;28;20074;-57
2022/07/17 12:37:21;;;;;;;5.10;1.75;;;23.60;99.90;;;;;;4984991;28;20768;-56
2022/07/17 12:39:49;;;;;;;3.50;1.92;;;24.10;99.90;;;;;;4985742;28;20054;-57
2022/07/17 12:42:15;;;;;;;3.08;1.33;;;24.20;99.90;;;;;;4985487;28;20485;-59
2022/07/17 12:44:45;;;;;;;5.03;1.70;;;23.80;99.90;;;;;;4985557;28;20054;-57
2022/07/17 12:47:11;;;;;;;6.22;1.88;;;23.70;99.90;;;;;;4993022;28;20045;-57
2022/07/17 12:49:37;;;;;;;6.95;2.08;;;23.90;99.90;;;;;;5003690;28;20049;-57
2022/07/17 12:52:03;;;;;;;4.15;1.60;;;24.00;99.90;;;;;;5001963;28;20046;-57